createdAt,value
2018-08-22T00:00:05.952Z,83.80
2018-08-22T00:02:33.706Z,83.80
2018-08-22T00:05:02.047Z,85.20
2018-08-22T00:07:31.955Z,84.70
2018-08-22T00:09:59.912Z,83.00
2018-08-22T00:12:27.714Z,84.20
2018-08-22T00:14:55.577Z,82.60
2018-08-22T00:17:23.602Z,85.50
2018-08-22T00:19:51.470Z,85.50
2018-08-22T00:22:19.372Z,85.40
2018-08-22T00:24:47.902Z,85.60
2018-08-22T00:27:15.658Z,86.00
2018-08-22T00:29:43.487Z,85.20
2018-08-22T00:32:11.322Z,86.40
2018-08-22T00:34:43.059Z,86.40
2018-08-22T00:37:10.895Z,86.40
2018-08-22T00:39:38.797Z,85.50
2018-08-22T00:42:06.595Z,87.20
2018-08-22T00:44:34.342Z,87.50
2018-08-22T00:47:02.087Z,87.50
2018-08-22T00:49:29.898Z,87.60
2018-08-22T00:51:57.767Z,87.40
2018-08-22T00:54:25.591Z,88.10
2018-08-22T00:56:56.259Z,88.50
2018-08-22T00:59:24.047Z,88.80
2018-08-22T01:01:51.783Z,89.50
2018-08-22T01:04:19.591Z,88.70
2018-08-22T01:06:47.362Z,83.70
2018-08-22T01:09:15.134Z,85.60
2018-08-22T01:11:42.970Z,89.60
2018-08-22T01:14:10.899Z,90.00
2018-08-22T01:16:42.103Z,90.10
2018-08-22T01:19:09.924Z,90.20
2018-08-22T01:21:37.714Z,90.20
2018-08-22T01:24:05.515Z,84.40
2018-08-22T01:26:33.327Z,87.60
2018-08-22T01:29:01.096Z,91.20
2018-08-22T01:31:28.933Z,86.70
2018-08-22T01:33:56.687Z,87.40
2018-08-22T01:36:24.478Z,87.20
2018-08-22T01:38:52.431Z,91.00
2018-08-22T01:41:20.255Z,90.50
2018-08-22T01:43:48.040Z,91.00
2018-08-22T01:46:15.819Z,91.70
2018-08-22T01:48:43.651Z,90.10
2018-08-22T01:51:11.394Z,91.60
2018-08-22T01:53:39.219Z,87.90
2018-08-22T01:56:07.022Z,91.40
2018-08-22T01:58:34.872Z,91.80
2018-08-22T02:01:02.675Z,91.70
2018-08-22T02:03:30.572Z,91.80
2018-08-22T02:05:58.353Z,92.10
2018-08-22T02:08:26.151Z,92.50
2018-08-22T02:10:53.999Z,92.70
2018-08-22T02:13:21.807Z,92.40
2018-08-22T02:15:49.598Z,92.40
2018-08-22T02:18:17.333Z,92.40
2018-08-22T02:20:45.115Z,92.40
2018-08-22T02:23:12.959Z,92.60
2018-08-22T02:25:40.766Z,92.50
2018-08-22T02:28:08.556Z,92.80
2018-08-22T02:30:36.299Z,92.70
2018-08-22T02:33:04.187Z,93.50
2018-08-22T02:35:31.979Z,91.10
2018-08-22T02:37:59.708Z,91.20
2018-08-22T02:40:27.485Z,93.70
2018-08-22T02:42:55.394Z,93.50
2018-08-22T02:45:23.151Z,93.70
2018-08-22T02:47:50.900Z,92.40
2018-08-22T02:50:18.688Z,91.80
2018-08-22T02:52:46.515Z,91.00
2018-08-22T02:55:14.309Z,92.50
2018-08-22T02:57:42.034Z,92.40
2018-08-22T03:00:09.747Z,93.20
2018-08-22T03:02:37.595Z,91.60
2018-08-22T03:05:05.558Z,94.00
2018-08-22T03:07:33.321Z,92.40
2018-08-22T03:10:01.167Z,92.90
2018-08-22T03:12:28.915Z,93.00
2018-08-22T03:14:56.726Z,92.90
2018-08-22T03:17:24.552Z,93.90
2018-08-22T03:19:52.315Z,93.70
2018-08-22T03:22:20.044Z,93.90
2018-08-22T03:24:47.863Z,93.50
2018-08-22T03:27:15.651Z,93.70
2018-08-22T03:29:43.507Z,93.20
2018-08-22T03:32:11.326Z,92.00
2018-08-22T03:34:39.088Z,93.70
2018-08-22T03:37:06.875Z,94.10
2018-08-22T03:39:34.763Z,93.70
2018-08-22T03:42:02.567Z,92.10
2018-08-22T03:44:31.231Z,92.90
2018-08-22T03:46:59.080Z,92.90
2018-08-22T03:49:26.891Z,93.60
2018-08-22T03:51:54.724Z,93.80
2018-08-22T03:54:22.501Z,93.90
2018-08-22T03:56:50.325Z,91.60
2018-08-22T03:59:18.107Z,93.20
2018-08-22T04:01:45.891Z,94.40
2018-08-22T04:04:13.654Z,94.70
2018-08-22T04:06:41.487Z,94.00
2018-08-22T04:09:09.215Z,95.10
2018-08-22T04:11:37.047Z,94.80
2018-08-22T04:14:04.935Z,94.50
2018-08-22T04:16:32.747Z,95.00
2018-08-22T04:19:00.567Z,93.80
2018-08-22T04:21:28.411Z,94.10
2018-08-22T04:23:56.319Z,95.00
2018-08-22T04:26:24.125Z,95.20
2018-08-22T04:28:52.068Z,95.00
2018-08-22T04:31:19.885Z,95.80
2018-08-22T04:33:47.720Z,95.50
2018-08-22T04:36:15.523Z,95.30
2018-08-22T04:38:43.272Z,93.60
2018-08-22T04:41:11.134Z,95.50
2018-08-22T04:43:42.362Z,95.90
2018-08-22T04:46:10.203Z,95.70
2018-08-22T04:48:43.399Z,95.60
2018-08-22T04:51:11.295Z,95.70
2018-08-22T04:53:39.100Z,95.10
2018-08-22T04:56:07.528Z,95.10
2018-08-22T04:58:35.343Z,94.90
2018-08-22T05:01:03.205Z,94.90
2018-08-22T05:03:31.055Z,93.80
2018-08-22T05:05:58.892Z,94.70
2018-08-22T05:08:26.848Z,94.80
2018-08-22T05:10:54.701Z,94.40
2018-08-22T05:13:22.439Z,94.70
2018-08-22T05:15:50.280Z,93.90
2018-08-22T05:18:18.453Z,93.70
2018-08-22T05:20:46.280Z,94.20
2018-08-22T05:23:15.569Z,93.90
2018-08-22T05:25:55.997Z,93.80
2018-08-22T05:28:24.195Z,92.60
2018-08-22T05:30:52.011Z,93.30
2018-08-22T05:33:19.835Z,93.10
2018-08-22T05:35:47.605Z,93.00
2018-08-22T05:38:15.443Z,93.00
2018-08-22T05:40:43.955Z,92.20
2018-08-22T05:43:11.721Z,92.50
2018-08-22T05:45:39.480Z,91.80
2018-08-22T05:48:07.235Z,92.20
2018-08-22T05:50:35.028Z,91.90
2018-08-22T05:53:03.264Z,91.60
2018-08-22T05:55:31.391Z,91.40
2018-08-22T05:57:59.275Z,90.90
2018-08-22T06:00:27.108Z,90.50
2018-08-22T06:02:54.872Z,90.20
2018-08-22T06:05:22.719Z,89.90
2018-08-22T06:07:50.795Z,89.60
2018-08-22T06:10:18.755Z,88.30
2018-08-22T06:12:46.489Z,86.30
2018-08-22T06:15:14.261Z,84.70
2018-08-22T06:17:42.080Z,84.60
2018-08-22T06:20:09.825Z,84.70
2018-08-22T06:22:37.607Z,85.00
2018-08-22T06:25:05.379Z,84.90
2018-08-22T06:27:33.184Z,84.40
2018-08-22T06:30:00.948Z,84.40
2018-08-22T06:32:28.720Z,83.30
2018-08-22T06:34:56.563Z,83.50
2018-08-22T06:37:24.359Z,82.80
2018-08-22T06:39:52.203Z,82.80
2018-08-22T06:42:20.031Z,81.80
2018-08-22T06:44:48.017Z,82.20
2018-08-22T06:47:15.811Z,81.60
2018-08-22T06:49:43.589Z,80.10
2018-08-22T06:52:11.448Z,80.80
2018-08-22T06:54:39.305Z,81.40
2018-08-22T06:57:07.233Z,80.50
2018-08-22T06:59:34.915Z,81.20
2018-08-22T07:02:02.679Z,79.90
2018-08-22T07:04:30.474Z,80.00
2018-08-22T07:06:58.287Z,79.50
2018-08-22T07:09:26.083Z,79.20
2018-08-22T07:11:53.868Z,77.80
2018-08-22T07:14:21.645Z,77.30
2018-08-22T07:16:49.436Z,76.30
2018-08-22T07:19:17.179Z,75.00
2018-08-22T07:21:44.980Z,74.70
2018-08-22T07:24:12.771Z,75.40
2018-08-22T07:26:40.470Z,75.00
2018-08-22T07:29:08.224Z,75.30
2018-08-22T07:31:36.066Z,75.20
2018-08-22T07:34:03.916Z,74.90
2018-08-22T07:36:31.680Z,74.50
2018-08-22T07:38:59.456Z,74.10
2018-08-22T07:41:27.293Z,74.30
2018-08-22T07:43:55.143Z,74.00
2018-08-22T07:46:22.936Z,73.20
2018-08-22T07:48:50.679Z,73.00
2018-08-22T07:51:18.537Z,72.60
2018-08-22T07:53:46.301Z,72.80
2018-08-22T07:56:14.148Z,71.80
2018-08-22T07:58:42.003Z,71.30
2018-08-22T08:01:09.849Z,70.70
2018-08-22T08:03:37.658Z,71.20
2018-08-22T08:06:05.655Z,71.00
2018-08-22T08:08:33.474Z,70.50
2018-08-22T08:11:01.394Z,70.20
2018-08-22T08:13:29.639Z,69.60
2018-08-22T08:15:58.120Z,70.20
2018-08-22T08:18:25.916Z,70.30
2018-08-22T08:20:53.700Z,69.50
2018-08-22T08:23:21.495Z,69.60
2018-08-22T08:25:49.292Z,69.60
2018-08-22T08:28:17.014Z,69.30
2018-08-22T08:30:44.841Z,67.20
2018-08-22T08:33:12.662Z,67.40
2018-08-22T08:35:40.468Z,67.90
2018-08-22T08:38:08.404Z,67.70
2018-08-22T08:40:36.227Z,66.30
2018-08-22T08:43:04.073Z,67.10
2018-08-22T08:45:31.866Z,66.40
2018-08-22T08:47:59.693Z,66.60
2018-08-22T08:50:27.483Z,66.60
2018-08-22T08:52:55.341Z,65.70
2018-08-22T08:55:23.188Z,65.20
2018-08-22T08:57:51.020Z,66.30
2018-08-22T09:00:18.797Z,66.20
2018-08-22T09:02:46.608Z,65.90
2018-08-22T09:05:14.485Z,64.60
2018-08-22T09:07:42.237Z,63.00
2018-08-22T09:10:10.032Z,64.40
2018-08-22T09:12:37.995Z,63.10
2018-08-22T09:15:06.634Z,63.90
2018-08-22T09:17:34.409Z,62.90
2018-08-22T09:20:02.300Z,62.90
2018-08-22T09:22:30.058Z,63.30
2018-08-22T09:24:57.887Z,62.60
2018-08-22T09:27:25.633Z,61.60
2018-08-22T09:29:53.490Z,60.20
2018-08-22T09:32:21.172Z,61.20
2018-08-22T09:34:48.955Z,60.80
2018-08-22T09:37:16.772Z,60.10
2018-08-22T09:39:44.645Z,59.40
2018-08-22T09:42:12.319Z,59.70
2018-08-22T09:44:40.104Z,59.10
2018-08-22T09:47:07.903Z,58.60
2018-08-22T09:49:35.712Z,58.50
2018-08-22T09:52:03.540Z,57.80
2018-08-22T09:54:31.959Z,56.30
2018-08-22T09:56:59.856Z,54.60
2018-08-22T09:59:27.635Z,55.00
2018-08-22T10:01:55.592Z,55.40
2018-08-22T10:04:24.085Z,55.10
2018-08-22T10:06:52.053Z,54.00
2018-08-22T10:09:20.951Z,54.00
2018-08-22T10:11:48.793Z,52.80
2018-08-22T10:14:16.505Z,52.40
2018-08-22T10:16:44.252Z,51.90
2018-08-22T10:19:12.083Z,51.70
2018-08-22T10:21:39.776Z,52.80
2018-08-22T10:24:07.580Z,52.10
2018-08-22T10:26:35.403Z,52.30
2018-08-22T10:29:03.143Z,51.30
2018-08-22T10:31:30.955Z,51.80
2018-08-22T10:33:58.728Z,52.80
2018-08-22T10:36:26.512Z,52.10
2018-08-22T10:38:54.275Z,50.10
2018-08-22T10:41:22.012Z,50.30
2018-08-22T10:43:49.879Z,49.90
2018-08-22T10:46:17.604Z,49.10
2018-08-22T10:48:45.396Z,49.10
2018-08-22T10:51:13.237Z,49.20
2018-08-22T10:53:41.022Z,50.00
2018-08-22T10:56:08.812Z,49.00
2018-08-22T10:58:36.643Z,48.90
2018-08-22T11:01:04.452Z,47.90
2018-08-22T11:03:32.204Z,46.10
2018-08-22T11:06:00.057Z,45.60
2018-08-22T11:08:27.787Z,44.70
2018-08-22T11:10:55.647Z,45.10
2018-08-22T11:13:23.438Z,44.10
2018-08-22T11:15:51.354Z,42.00
2018-08-22T11:18:19.036Z,38.80
2018-08-22T11:20:48.567Z,38.40
2018-08-22T11:23:34.161Z,38.30
2018-08-22T11:26:19.387Z,37.50
2018-08-22T11:29:04.464Z,35.60
2018-08-22T11:31:49.500Z,34.80
2018-08-22T11:34:34.571Z,34.00
2018-08-22T11:37:04.784Z,33.40
2018-08-22T11:39:32.639Z,33.00
2018-08-22T11:42:00.680Z,34.10
2018-08-22T11:44:28.895Z,32.30
2018-08-22T11:46:56.687Z,32.50
2018-08-22T11:49:24.472Z,33.10
2018-08-22T11:51:52.235Z,32.60
2018-08-22T11:54:20.140Z,31.00
2018-08-22T11:56:47.964Z,31.80
2018-08-22T11:59:15.831Z,32.00
2018-08-22T12:01:43.683Z,32.80
2018-08-22T12:04:11.434Z,30.60
2018-08-22T12:06:39.416Z,30.30
2018-08-22T12:09:09.136Z,29.90
2018-08-22T12:11:36.896Z,29.20
2018-08-22T12:14:04.743Z,30.50
2018-08-22T12:16:32.573Z,30.50
2018-08-22T12:19:00.525Z,29.90
2018-08-22T12:21:28.369Z,30.00
2018-08-22T12:23:56.100Z,29.20
2018-08-22T12:26:23.889Z,30.00
2018-08-22T12:28:51.672Z,29.30
2018-08-22T12:31:19.500Z,29.00
2018-08-22T12:33:47.205Z,29.90
2018-08-22T12:36:15.055Z,28.80
2018-08-22T12:38:42.936Z,28.50
2018-08-22T12:41:10.792Z,29.70
2018-08-22T12:43:38.612Z,29.40
2018-08-22T12:46:06.420Z,30.60
2018-08-22T12:48:34.255Z,28.70
2018-08-22T12:51:02.123Z,28.50
2018-08-22T12:53:29.964Z,29.20
2018-08-22T12:55:57.737Z,27.50
2018-08-22T12:58:25.670Z,27.80
2018-08-22T13:00:53.451Z,30.20
2018-08-22T13:03:21.381Z,27.20
2018-08-22T13:05:49.185Z,28.10
2018-08-22T13:08:17.084Z,27.80
2018-08-22T13:10:44.877Z,28.20
2018-08-22T13:13:12.658Z,28.50
2018-08-22T13:15:40.460Z,29.50
2018-08-22T13:18:08.231Z,29.10
2018-08-22T13:20:36.000Z,28.40
2018-08-22T13:23:03.995Z,27.80
2018-08-22T13:25:31.868Z,28.10
2018-08-22T13:27:59.699Z,29.00
2018-08-22T13:30:27.592Z,27.50
2018-08-22T13:32:55.364Z,28.20
2018-08-22T13:35:23.142Z,27.10
2018-08-22T13:37:50.908Z,27.50
2018-08-22T13:40:18.731Z,28.60
2018-08-22T13:42:46.464Z,28.70
2018-08-22T13:45:14.283Z,30.10
2018-08-22T13:47:42.149Z,30.00
2018-08-22T13:50:09.916Z,29.50
2018-08-22T13:52:37.723Z,30.30
2018-08-22T13:55:05.780Z,29.60
2018-08-22T13:57:33.590Z,33.30
2018-08-22T14:00:01.390Z,30.20
2018-08-22T14:02:29.163Z,32.40
2018-08-22T14:04:56.932Z,30.90
2018-08-22T14:07:24.767Z,31.70
2018-08-22T14:09:52.527Z,30.00
2018-08-22T14:12:20.296Z,30.50
2018-08-22T14:14:48.082Z,31.90
2018-08-22T14:17:15.854Z,33.30
2018-08-22T14:19:43.668Z,30.60
2018-08-22T14:22:11.383Z,34.50
2018-08-22T14:24:39.198Z,32.50
2018-08-22T14:27:06.956Z,32.50
2018-08-22T14:29:34.671Z,31.00
2018-08-22T14:32:02.523Z,33.30
2018-08-22T14:34:30.268Z,32.70
2018-08-22T14:36:58.072Z,33.70
2018-08-22T14:39:26.063Z,33.00
2018-08-22T14:41:53.735Z,32.90
2018-08-22T14:44:21.571Z,32.00
2018-08-22T14:46:49.361Z,33.30
2018-08-22T14:49:17.176Z,33.20
2018-08-22T14:51:44.895Z,34.00
2018-08-22T14:54:12.732Z,31.30
2018-08-22T14:56:40.459Z,35.10
2018-08-22T14:59:08.327Z,35.50
2018-08-22T15:01:36.197Z,30.90
2018-08-22T15:04:04.077Z,32.60
2018-08-22T15:06:31.828Z,32.70
2018-08-22T15:09:05.411Z,35.40
2018-08-22T15:11:34.857Z,31.20
2018-08-22T15:14:03.121Z,33.10
2018-08-22T15:16:31.301Z,33.70
2018-08-22T15:18:59.168Z,34.10
2018-08-22T15:21:26.961Z,32.60
2018-08-22T15:23:54.976Z,31.70
2018-08-22T15:26:23.619Z,33.30
2018-08-22T15:28:57.595Z,32.90
2018-08-22T15:31:25.395Z,33.50
2018-08-22T15:33:53.138Z,32.80
2018-08-22T15:36:21.327Z,33.90
2018-08-22T15:38:49.199Z,33.40
2018-08-22T15:41:17.316Z,33.00
2018-08-22T15:43:45.148Z,34.90
2018-08-22T15:46:13.008Z,35.10
2018-08-22T15:48:40.812Z,35.30
2018-08-22T15:51:08.704Z,34.10
2018-08-22T15:53:36.503Z,34.70
2018-08-22T15:56:04.367Z,35.50
2018-08-22T15:58:32.204Z,35.40
2018-08-22T16:00:59.973Z,36.20
2018-08-22T16:03:27.769Z,37.10
2018-08-22T16:05:56.319Z,34.20
2018-08-22T16:08:25.430Z,36.90
2018-08-22T16:10:54.385Z,36.20
2018-08-22T16:13:29.359Z,35.80
2018-08-22T16:15:59.359Z,36.00
2018-08-22T16:18:27.251Z,34.60
2018-08-22T16:20:56.166Z,36.30
2018-08-22T16:23:31.737Z,35.10
2018-08-22T16:26:01.180Z,36.10
2018-08-22T16:28:47.839Z,36.40
2018-08-22T16:31:15.955Z,37.40
2018-08-22T16:33:43.702Z,37.40
2018-08-22T16:36:18.695Z,37.10
2018-08-22T16:38:46.559Z,35.60
2018-08-22T16:41:15.952Z,35.90
2018-08-22T16:43:44.543Z,37.20
2018-08-22T16:46:14.228Z,37.20
2018-08-22T16:48:43.231Z,37.30
2018-08-22T16:51:11.032Z,36.60
2018-08-22T16:53:38.769Z,37.20
2018-08-22T16:56:06.720Z,36.10
2018-08-22T16:58:34.537Z,37.50
2018-08-22T17:01:02.336Z,37.40
2018-08-22T17:03:30.175Z,37.70
2018-08-22T17:06:05.410Z,37.90
2018-08-22T17:08:35.047Z,38.10
2018-08-22T17:11:11.274Z,38.20
2018-08-22T17:13:49.432Z,37.40
2018-08-22T17:16:17.291Z,38.00
2018-08-22T17:18:45.100Z,38.80
2018-08-22T17:21:12.935Z,38.50
2018-08-22T17:23:41.111Z,39.10
2018-08-22T17:26:12.959Z,37.80
2018-08-22T17:28:44.455Z,40.00
2018-08-22T17:31:12.887Z,39.60
2018-08-22T17:33:55.344Z,40.00
2018-08-22T17:36:29.271Z,39.00
2018-08-22T17:39:05.278Z,40.10
2018-08-22T17:41:33.668Z,40.00
2018-08-22T17:44:11.889Z,40.90
2018-08-22T17:46:47.664Z,39.40
2018-08-22T17:49:15.684Z,38.90
2018-08-22T17:52:04.276Z,39.70
2018-08-22T17:54:33.409Z,40.40
2018-08-22T17:57:20.414Z,41.50
2018-08-22T17:59:48.301Z,41.00
2018-08-22T18:02:16.187Z,41.70
2018-08-22T18:07:23.237Z,41.50
2018-08-22T18:09:51.237Z,42.30
2018-08-22T18:12:22.128Z,42.90
2018-08-22T18:14:49.910Z,42.60
2018-08-22T18:17:19.264Z,43.00
2018-08-22T18:19:47.754Z,43.40
2018-08-22T18:22:15.911Z,43.60
2018-08-22T18:24:56.262Z,43.70
2018-08-22T18:27:24.646Z,44.10
2018-08-22T18:29:52.319Z,44.20
2018-08-22T18:32:20.119Z,44.70
2018-08-22T18:35:06.152Z,44.50
2018-08-22T18:37:34.339Z,44.90
2018-08-22T18:40:23.363Z,45.60
2018-08-22T18:42:56.119Z,46.70
2018-08-22T18:45:33.246Z,47.00
2018-08-22T18:48:03.025Z,48.00
2018-08-22T18:50:31.081Z,48.80
2018-08-22T18:53:00.296Z,49.30
2018-08-22T18:55:33.138Z,49.90
2018-08-22T18:58:03.869Z,50.60
2018-08-22T19:00:36.567Z,51.10
2018-08-22T19:03:05.240Z,51.10
2018-08-22T19:05:35.713Z,50.70
2018-08-22T19:08:15.137Z,51.50
2018-08-22T19:10:45.220Z,52.10
2018-08-22T19:13:16.005Z,52.50
2018-08-22T19:15:53.509Z,53.00
2018-08-22T19:18:26.177Z,53.30
2018-08-22T19:20:57.126Z,54.20
2018-08-22T19:23:25.010Z,54.50
2018-08-22T19:25:55.919Z,55.20
2018-08-22T19:28:23.775Z,56.40
2018-08-22T19:30:54.596Z,56.10
2018-08-22T19:33:27.146Z,56.30
2018-08-22T19:36:02.852Z,56.20
2018-08-22T19:38:32.214Z,56.40
2018-08-22T19:41:18.868Z,56.80
2018-08-22T19:43:46.700Z,57.30
2018-08-22T19:46:14.589Z,57.80
2018-08-22T19:48:42.343Z,58.10
2018-08-22T19:51:10.790Z,58.70
2018-08-22T19:53:57.556Z,59.30
2018-08-22T19:56:26.299Z,59.70
2018-08-22T19:58:54.767Z,60.30
2018-08-22T20:01:22.575Z,61.00
2018-08-22T20:03:55.742Z,61.50
2018-08-22T20:06:25.522Z,61.40
2018-08-22T20:08:55.820Z,61.90
2018-08-22T20:11:23.937Z,62.50
2018-08-22T20:14:00.839Z,63.10
2018-08-22T20:16:30.555Z,62.40
2018-08-22T20:18:59.619Z,63.10
2018-08-22T20:21:34.147Z,64.20
2018-08-22T20:24:03.383Z,64.20
2018-08-22T20:26:33.856Z,64.60
2018-08-22T20:29:03.671Z,64.30
2018-08-22T20:31:34.793Z,65.10
2018-08-22T20:34:07.388Z,64.80
2018-08-22T20:36:39.775Z,65.30
2018-08-22T20:39:11.235Z,65.40
2018-08-22T20:41:40.584Z,65.60
2018-08-22T20:44:18.133Z,65.50
2018-08-22T20:46:47.339Z,66.30
2018-08-22T20:49:18.634Z,66.40
2018-08-22T20:51:46.764Z,65.80
2018-08-22T20:54:22.462Z,66.60
2018-08-22T20:56:56.585Z,66.00
2018-08-22T20:59:24.543Z,66.70
2018-08-22T21:02:01.815Z,61.90
2018-08-22T21:04:32.715Z,66.80
2018-08-22T21:07:06.505Z,65.40
2018-08-22T21:09:38.042Z,68.10
2018-08-22T21:12:05.827Z,68.30
2018-08-22T21:14:33.646Z,69.10
2018-08-22T21:17:05.300Z,67.70
2018-08-22T21:19:33.155Z,68.50
2018-08-22T21:22:01.077Z,68.80
2018-08-22T21:24:28.878Z,69.10
2018-08-22T21:27:02.932Z,69.80
2018-08-22T21:29:34.066Z,68.70
2018-08-22T21:32:01.993Z,68.30
2018-08-22T21:34:31.723Z,68.70
2018-08-22T21:37:02.172Z,69.10
2018-08-22T21:39:37.059Z,69.30
2018-08-22T21:42:05.371Z,65.90
2018-08-22T21:44:33.267Z,70.10
2018-08-22T21:47:06.785Z,69.30
2018-08-22T21:49:34.555Z,69.80
2018-08-22T21:52:02.409Z,70.90
2018-08-22T21:54:32.743Z,70.60
2018-08-22T21:57:03.765Z,71.00
2018-08-22T21:59:31.687Z,72.30
2018-08-22T22:02:06.234Z,71.90
2018-08-22T22:04:38.436Z,72.70
2018-08-22T22:07:09.304Z,72.80
2018-08-22T22:09:40.401Z,71.90
2018-08-22T22:12:17.182Z,71.50
2018-08-22T22:14:46.244Z,71.00
2018-08-22T22:17:14.049Z,68.80
2018-08-22T22:19:41.888Z,72.20
2018-08-22T22:22:09.729Z,73.10
2018-08-22T22:24:56.101Z,74.20
2018-08-22T22:27:24.461Z,74.90
2018-08-22T22:30:01.714Z,74.80
2018-08-22T22:32:29.947Z,75.40
2018-08-22T22:34:57.824Z,76.20
2018-08-22T22:37:25.711Z,76.90
2018-08-22T22:39:53.455Z,77.40
2018-08-22T22:42:25.106Z,74.80
2018-08-22T22:44:54.816Z,73.10
2018-08-22T22:47:28.575Z,74.40
2018-08-22T22:50:00.075Z,72.40
2018-08-22T22:52:35.232Z,70.30
2018-08-22T22:55:07.673Z,76.80
2018-08-22T22:57:36.912Z,75.90
2018-08-22T23:00:07.824Z,77.40
2018-08-22T23:02:35.647Z,71.90
2018-08-22T23:05:03.552Z,75.40
2018-08-22T23:07:35.167Z,74.80
2018-08-22T23:10:08.321Z,77.70
2018-08-22T23:12:38.016Z,78.40
2018-08-22T23:15:09.308Z,78.60
2018-08-22T23:17:37.280Z,76.90
2018-08-22T23:20:46.027Z,76.30
2018-08-22T23:23:27.355Z,73.20
2018-08-22T23:25:57.757Z,73.10
2018-08-22T23:28:25.577Z,73.00
2018-08-22T23:30:53.414Z,71.70
2018-08-22T23:33:21.720Z,74.80
2018-08-22T23:35:50.103Z,75.30
2018-08-22T23:38:26.464Z,77.00
2018-08-22T23:40:54.263Z,77.00
2018-08-22T23:43:22.271Z,79.60
2018-08-22T23:45:54.338Z,78.70
2018-08-22T23:48:27.796Z,79.10
2018-08-22T23:50:59.739Z,76.20
2018-08-22T23:53:30.180Z,73.80
2018-08-22T23:56:16.159Z,78.00
2018-08-22T23:58:44.942Z,79.00
